Aérodrome :
LOGIN :

S'inscrire | Disclaimer

   EN    FR    IT 

 










Légende :    VFR   VFR Marginal   IFR   IFR Intensif   IFR Très Intensif
Visi : 
Plafond : 
>= 8 km
>= 3000ft
5 à 8 km
1000 à 3000 ft
1500m à 5 km
500 à 1000 ft
800 à 1500m
200 à 500 ft
< 800m
< 200 ft
Symboles :   Orages  Brouillard  Fortes neiges  Fortes précipitations  Vent > 20 kt
SIGMETs :   Divers  Orages  Givrage  Turbulence  Onde Orograph.  Cendres Volcan.







- Altitude de l'aérodrome : 27 ft
- Code IATA : PMI


LEPA - Palma de Mallorca

DERNIER METAR :
  • 230000Z 00000KT 9999 FEW018 12/12 Q1025 NOSIG

METARs EXPIRÉS :
  • 222330Z 00000KT 9999 FEW020 SCT060 12/11 Q1025 NOSIG
  • 222300Z VRB02KT 9999 FEW020 SCT060 12/12 Q1025 NOSIG
  • 222230Z VRB01KT 9999 FEW020 SCT060 13/12 Q1025 NOSIG
  • 222200Z VRB02KT 9999 FEW030 SCT060 13/12 Q1025 NOSIG
  • 222130Z 00000KT 9999 FEW030 SCT060 13/13 Q1025 NOSIG

TAF TAF LEPA
Valide du 23 à 00h jusqu'au 24 à 00h UTC


222300Z 2300/2324 VRB04KT 9999 SCT040 TX21/2312Z TN11/2306Z
BECMG 2310/2312 22010KT
BECMG 2318/2320 VRB04KT
Pas de NOTAMs connus pour ce terrain.



MET'MAP, la Météo Aéronautique d'un coup d'oeil ! - Copyright ORBIFLY Décembre 2007 - Disclaimer

ORBIFLY MET'MAP TEAM :

Programmation & Développement : Alexandra Zaïnal
Conception & Développement : Baudouin d'Aumeries
Co-Programmation & Développement : Marc-Olivier Méhu
Soutien technique & logistique : Manuel Goepfert

Contact : metmap@orbifly.com




SOURCES & CREDITS :

   NOAA